createdAt,value
2023-04-10T00:01:36.397Z,6.80
2023-04-10T00:06:44.702Z,6.80
2023-04-10T00:11:50.476Z,6.79
2023-04-10T00:16:56.429Z,6.71
2023-04-10T00:22:02.333Z,6.61
2023-04-10T00:27:07.780Z,6.53
2023-04-10T00:32:13.460Z,6.47
2023-04-10T00:37:19.118Z,6.42
2023-04-10T00:42:24.552Z,6.36
2023-04-10T00:47:31.032Z,6.31
2023-04-10T00:52:37.815Z,6.23
2023-04-10T00:57:47.535Z,6.22
2023-04-10T01:02:53.179Z,6.22
2023-04-10T01:08:21.075Z,6.23
2023-04-10T01:13:38.290Z,6.23
2023-04-10T01:18:49.433Z,6.21
2023-04-10T01:24:09.439Z,6.16
2023-04-10T01:29:19.624Z,6.11
2023-04-10T01:34:31.496Z,5.94
2023-04-10T01:39:40.612Z,5.89
2023-04-10T01:44:48.296Z,5.82
2023-04-10T01:49:55.879Z,5.85
2023-04-10T01:55:03.703Z,5.71
2023-04-10T02:00:11.715Z,5.66
2023-04-10T02:05:19.808Z,5.63
2023-04-10T02:10:28.348Z,5.64
2023-04-10T02:15:38.032Z,5.55
2023-04-10T02:20:44.328Z,5.48
2023-04-10T02:25:51.082Z,5.38
2023-04-10T02:30:56.573Z,5.38
2023-04-10T02:36:02.883Z,5.30
2023-04-10T02:41:08.512Z,5.28
2023-04-10T02:46:14.589Z,5.33
2023-04-10T02:51:20.439Z,5.33
2023-04-10T02:56:27.276Z,5.35
2023-04-10T03:01:32.799Z,5.32
2023-04-10T03:06:38.417Z,5.30
2023-04-10T03:11:44.124Z,5.27
2023-04-10T03:16:50.567Z,5.14
2023-04-10T03:21:58.620Z,5.10
2023-04-10T03:27:04.121Z,5.12
2023-04-10T03:32:09.899Z,5.17
2023-04-10T03:37:15.764Z,5.17
2023-04-10T03:42:21.380Z,5.10
2023-04-10T03:47:27.456Z,4.95
2023-04-10T03:52:33.060Z,4.82
2023-04-10T03:57:38.745Z,4.80
2023-04-10T04:02:45.274Z,4.95
2023-04-10T04:07:52.649Z,4.95
2023-04-10T04:13:12.113Z,4.98
2023-04-10T04:18:28.405Z,4.92
2023-04-10T04:23:36.105Z,4.83
2023-04-10T04:28:43.298Z,4.79
2023-04-10T04:34:00.336Z,4.79
2023-04-10T04:39:16.954Z,4.90
2023-04-10T04:44:30.106Z,4.72
2023-04-10T04:49:37.306Z,4.74
2023-04-10T04:54:47.108Z,4.52
2023-04-10T05:00:00.516Z,4.58
2023-04-10T05:05:24.688Z,4.58
2023-04-10T05:10:31.908Z,4.85
2023-04-10T05:15:43.190Z,4.97
2023-04-10T05:20:53.461Z,5.13
2023-04-10T05:26:00.715Z,5.22
2023-04-10T05:31:16.796Z,5.38
2023-04-10T05:36:30.002Z,5.54
2023-04-10T05:41:37.257Z,5.68
2023-04-10T05:47:00.739Z,5.76
2023-04-10T05:52:20.008Z,5.78
2023-04-10T05:57:31.025Z,6.02
2023-04-10T06:02:43.277Z,6.17
2023-04-10T06:07:51.775Z,6.48
2023-04-10T06:12:57.581Z,6.69
2023-04-10T06:18:05.423Z,6.92
2023-04-10T06:23:12.577Z,7.05
2023-04-10T06:28:18.132Z,7.19
2023-04-10T06:33:26.406Z,7.29
2023-04-10T06:38:33.979Z,7.60
2023-04-10T06:43:41.327Z,7.89
2023-04-10T06:48:46.760Z,8.18
2023-04-10T06:53:52.359Z,8.27
2023-04-10T06:58:57.940Z,8.56
2023-04-10T07:04:03.550Z,8.78
2023-04-10T07:09:09.139Z,8.99
2023-04-10T07:14:14.744Z,9.27
2023-04-10T07:19:21.113Z,9.47
2023-04-10T07:24:27.338Z,9.68
2023-04-10T07:29:32.900Z,9.96
2023-04-10T07:34:38.424Z,10.20
2023-04-10T07:39:43.864Z,10.33
2023-04-10T07:44:49.402Z,10.60
2023-04-10T07:49:54.910Z,10.86
2023-04-10T07:55:05.055Z,11.05
2023-04-10T08:00:11.751Z,11.34
2023-04-10T08:05:20.706Z,11.59
2023-04-10T08:10:26.396Z,11.75
2023-04-10T08:15:31.900Z,11.93
2023-04-10T08:20:37.507Z,12.12
2023-04-10T08:25:43.019Z,12.40
2023-04-10T08:30:48.589Z,12.61
2023-04-10T08:35:54.115Z,12.77
2023-04-10T08:40:59.913Z,12.98
2023-04-10T08:46:06.190Z,13.18
2023-04-10T08:51:19.434Z,13.27
2023-04-10T08:56:23.046Z,13.42
2023-04-10T09:01:28.765Z,13.57
2023-04-10T09:06:34.363Z,13.88
2023-04-10T09:11:59.535Z,13.99
2023-04-10T09:17:20.034Z,14.26
2023-04-10T09:22:36.791Z,14.47
2023-04-10T09:27:42.523Z,14.55
2023-04-10T09:32:48.019Z,14.83
2023-04-10T09:37:53.697Z,14.97
2023-04-10T09:42:59.349Z,15.12
2023-04-10T09:48:07.484Z,15.32
2023-04-10T09:53:16.566Z,15.17
2023-04-10T09:58:23.579Z,15.45
2023-04-10T10:03:30.052Z,15.23
2023-04-10T10:08:37.558Z,15.31
2023-04-10T10:13:58.537Z,15.55
2023-04-10T10:19:16.329Z,15.72
2023-04-10T10:24:23.904Z,15.45
2023-04-10T10:29:32.445Z,15.56
2023-04-10T10:34:38.395Z,15.78
2023-04-10T10:39:52.851Z,15.75
2023-04-10T10:45:19.674Z,16.06
2023-04-10T10:50:25.344Z,16.35
2023-04-10T10:55:37.615Z,16.32
2023-04-10T11:00:56.632Z,16.40
2023-04-10T11:06:08.452Z,16.75
2023-04-10T11:11:17.164Z,16.91
2023-04-10T11:16:24.563Z,16.91
2023-04-10T11:21:30.588Z,17.03
2023-04-10T11:26:44.424Z,17.25
2023-04-10T11:32:01.175Z,17.26
2023-04-10T11:37:07.238Z,17.39
2023-04-10T11:42:12.918Z,17.58
2023-04-10T11:47:18.422Z,17.73
2023-04-10T11:52:27.413Z,17.75
2023-04-10T11:57:36.405Z,17.76
2023-04-10T12:02:53.688Z,17.68
2023-04-10T12:07:59.996Z,17.85
2023-04-10T12:13:06.264Z,17.85
2023-04-10T12:18:12.604Z,18.03
2023-04-10T12:23:19.275Z,18.46
2023-04-10T12:28:24.803Z,18.40
2023-04-10T12:33:30.481Z,18.33
2023-04-10T12:38:44.003Z,18.25
2023-04-10T12:43:49.881Z,18.51
2023-04-10T12:49:00.186Z,18.47
2023-04-10T12:54:05.871Z,18.55
2023-04-10T12:59:11.599Z,18.73
2023-04-10T13:04:18.811Z,18.32
2023-04-10T13:09:24.353Z,18.35
2023-04-10T13:14:29.871Z,18.37
2023-04-10T13:19:35.417Z,18.56
2023-04-10T13:24:41.081Z,18.95
2023-04-10T13:29:46.738Z,19.10
2023-04-10T13:34:53.855Z,19.39
2023-04-10T13:39:59.317Z,19.52
2023-04-10T13:45:05.977Z,19.51
2023-04-10T13:50:12.157Z,19.37
2023-04-10T13:55:17.845Z,19.53
2023-04-10T14:00:23.474Z,19.43
2023-04-10T14:05:30.458Z,19.08
2023-04-10T14:10:36.047Z,19.37
2023-04-10T14:15:41.584Z,19.58
2023-04-10T14:20:47.178Z,19.62
2023-04-10T14:25:52.864Z,19.64
2023-04-10T14:30:58.547Z,19.57
2023-04-10T14:36:04.247Z,19.52
2023-04-10T14:41:09.957Z,19.40
2023-04-10T14:46:15.796Z,19.08
2023-04-10T14:51:21.265Z,19.05
2023-04-10T14:56:26.935Z,19.27
2023-04-10T15:01:32.392Z,19.35
2023-04-10T15:06:37.966Z,19.22
2023-04-10T15:11:43.414Z,18.80
2023-04-10T15:16:48.918Z,18.52
2023-04-10T15:21:55.428Z,18.75
2023-04-10T15:27:01.678Z,18.81
2023-04-10T15:32:07.869Z,18.92
2023-04-10T15:37:13.388Z,19.24
2023-04-10T15:42:18.973Z,19.42
2023-04-10T15:47:24.849Z,19.23
2023-04-10T15:52:32.068Z,19.39
2023-04-10T15:57:37.630Z,19.75
2023-04-10T16:02:43.519Z,19.89
2023-04-10T16:07:49.260Z,19.90
2023-04-10T16:12:56.676Z,20.21
2023-04-10T16:18:02.136Z,20.16
2023-04-10T16:23:07.725Z,20.24
2023-04-10T16:28:13.379Z,20.12
2023-04-10T16:33:18.826Z,21.06
2023-04-10T16:38:24.647Z,20.67
2023-04-10T16:43:30.260Z,20.19
2023-04-10T16:48:37.016Z,19.97
2023-04-10T16:53:42.600Z,19.36
2023-04-10T16:58:48.098Z,19.15
2023-04-10T17:03:54.729Z,18.85
2023-04-10T17:09:00.272Z,18.60
2023-04-10T17:14:07.413Z,18.48
2023-04-10T17:19:13.192Z,18.39
2023-04-10T17:24:18.709Z,18.16
2023-04-10T17:29:25.868Z,18.00
2023-04-10T17:34:31.494Z,17.80
2023-04-10T17:39:36.998Z,17.65
2023-04-10T17:44:42.547Z,17.25
2023-04-10T17:49:48.217Z,17.05
2023-04-10T17:54:53.722Z,16.82
2023-04-10T17:59:59.522Z,16.59
2023-04-10T18:05:06.600Z,16.41
2023-04-10T18:10:12.668Z,16.19
2023-04-10T18:15:18.912Z,16.09
2023-04-10T18:20:24.696Z,15.95
2023-04-10T18:25:30.147Z,15.80
2023-04-10T18:30:37.293Z,15.72
2023-04-10T18:35:42.947Z,15.58
2023-04-10T18:40:48.541Z,15.44
2023-04-10T18:45:55.108Z,15.32
2023-04-10T18:51:00.788Z,15.27
2023-04-10T18:56:06.639Z,15.08
2023-04-10T19:01:12.563Z,14.99
2023-04-10T19:06:18.045Z,14.87
2023-04-10T19:11:23.632Z,14.78
2023-04-10T19:16:29.171Z,14.73
2023-04-10T19:21:34.909Z,14.69
2023-04-10T19:26:40.759Z,14.66
2023-04-10T19:31:46.292Z,14.61
2023-04-10T19:36:51.825Z,14.58
2023-04-10T19:41:57.819Z,14.55
2023-04-10T19:47:03.828Z,14.50
2023-04-10T19:52:09.810Z,14.49
2023-04-10T19:57:15.587Z,14.40
2023-04-10T20:02:22.972Z,14.38
2023-04-10T20:07:29.604Z,14.36
2023-04-10T20:12:35.408Z,14.32
2023-04-10T20:17:41.753Z,14.31
2023-04-10T20:22:47.381Z,14.32
2023-04-10T20:27:52.955Z,14.26
2023-04-10T20:32:58.414Z,14.21
2023-04-10T20:38:05.086Z,14.16
2023-04-10T20:43:14.225Z,14.13
2023-04-10T20:48:19.997Z,14.09
2023-04-10T20:53:26.778Z,14.03
2023-04-10T20:58:32.225Z,14.01
2023-04-10T21:03:37.813Z,13.95
2023-04-10T21:08:43.615Z,13.90
2023-04-10T21:13:49.428Z,13.85
2023-04-10T21:18:55.007Z,13.83
2023-04-10T21:24:00.843Z,13.78
2023-04-10T21:29:06.503Z,13.76
2023-04-10T21:34:12.169Z,13.72
2023-04-10T21:39:17.702Z,13.69
2023-04-10T21:44:23.224Z,13.65
2023-04-10T21:49:28.706Z,13.66
2023-04-10T21:54:34.589Z,13.57
2023-04-10T21:59:40.056Z,13.42
2023-04-10T22:04:53.962Z,13.44
2023-04-10T22:09:52.687Z,13.40
2023-04-10T22:14:58.154Z,13.31
2023-04-10T22:20:03.886Z,13.23
2023-04-10T22:25:10.062Z,13.21
2023-04-10T22:30:16.219Z,13.14
2023-04-10T22:35:21.806Z,13.09
2023-04-10T22:40:27.397Z,13.04
2023-04-10T22:45:32.921Z,13.06
2023-04-10T22:50:38.610Z,13.02
2023-04-10T22:55:44.068Z,12.99
2023-04-10T23:00:49.504Z,12.98
2023-04-10T23:05:55.083Z,12.91
2023-04-10T23:11:00.662Z,12.82
2023-04-10T23:16:06.832Z,12.81
2023-04-10T23:21:12.417Z,12.72
2023-04-10T23:26:17.874Z,12.70
2023-04-10T23:31:23.495Z,12.68
2023-04-10T23:36:29.036Z,12.71
2023-04-10T23:41:35.057Z,12.60
2023-04-10T23:46:40.665Z,12.58
2023-04-10T23:51:47.166Z,12.53
2023-04-10T23:56:52.781Z,12.46
